createdAt,value
2018-08-07T00:04:13.173Z,27.90
2018-08-07T00:06:41.835Z,27.90
2018-08-07T00:09:11.876Z,27.80
2018-08-07T00:11:40.625Z,27.80
2018-08-07T00:14:09.516Z,27.80
2018-08-07T00:16:38.316Z,27.60
2018-08-07T00:19:07.035Z,27.60
2018-08-07T00:21:35.756Z,27.40
2018-08-07T00:24:04.469Z,27.40
2018-08-07T00:26:33.163Z,27.40
2018-08-07T00:29:01.878Z,27.40
2018-08-07T00:31:30.648Z,27.40
2018-08-07T00:33:59.397Z,27.30
2018-08-07T00:36:28.093Z,27.20
2018-08-07T00:38:56.833Z,27.10
2018-08-07T00:41:30.295Z,27.10
2018-08-07T00:43:58.985Z,27.20
2018-08-07T00:46:27.734Z,27.20
2018-08-07T00:48:56.477Z,27.20
2018-08-07T00:51:25.642Z,27.20
2018-08-07T00:53:54.348Z,27.20
2018-08-07T00:56:23.096Z,27.20
2018-08-07T00:58:51.877Z,27.20
2018-08-07T01:01:20.566Z,27.20
2018-08-07T01:03:49.241Z,27.20
2018-08-07T01:06:17.885Z,27.20
2018-08-07T01:08:46.604Z,27.20
2018-08-07T01:11:15.257Z,27.20
2018-08-07T01:13:43.984Z,27.20
2018-08-07T01:16:12.659Z,27.20
2018-08-07T01:21:09.640Z,27.10
2018-08-07T01:26:06.915Z,27.10
2018-08-07T01:28:35.774Z,27.10
2018-08-07T01:31:04.442Z,27.10
2018-08-07T01:33:33.097Z,27.10
2018-08-07T01:36:01.717Z,27.00
2018-08-07T01:38:30.410Z,27.00
2018-08-07T01:40:59.668Z,27.00
2018-08-07T01:43:28.346Z,27.00
2018-08-07T01:45:57.005Z,27.00
2018-08-07T01:50:54.852Z,27.00
2018-08-07T01:53:23.517Z,27.00
2018-08-07T01:55:52.237Z,27.00
2018-08-07T01:58:22.640Z,27.00
2018-08-07T02:00:51.371Z,26.90
2018-08-07T02:05:48.996Z,26.90
2018-08-07T02:08:18.426Z,26.90
2018-08-07T02:10:47.191Z,26.80
2018-08-07T02:13:15.898Z,26.80
2018-08-07T02:15:44.592Z,26.80
2018-08-07T02:18:13.377Z,26.60
2018-08-07T02:20:42.036Z,26.60
2018-08-07T02:23:10.711Z,26.50
2018-08-07T02:25:39.406Z,26.40
2018-08-07T02:28:08.126Z,26.40
2018-08-07T02:30:36.826Z,26.30
2018-08-07T02:33:05.533Z,26.30
2018-08-07T02:35:34.194Z,26.30
2018-08-07T02:38:02.820Z,26.30
2018-08-07T02:40:31.524Z,26.30
2018-08-07T02:43:06.661Z,26.30
2018-08-07T02:50:32.024Z,26.30
2018-08-07T02:53:00.860Z,26.30
2018-08-07T02:55:29.724Z,26.10
2018-08-07T02:57:58.493Z,26.20
2018-08-07T03:00:27.660Z,26.20
2018-08-07T03:02:56.372Z,26.10
2018-08-07T03:05:25.668Z,26.10
2018-08-07T03:07:54.408Z,25.90
2018-08-07T03:10:23.104Z,26.00
2018-08-07T03:12:51.789Z,26.00
2018-08-07T03:15:21.049Z,26.10
2018-08-07T03:17:50.164Z,26.10
2018-08-07T03:20:19.159Z,26.10
2018-08-07T03:22:47.909Z,26.10
2018-08-07T03:25:16.634Z,26.10
2018-08-07T03:27:47.059Z,26.10
2018-08-07T03:30:17.317Z,26.10
2018-08-07T03:32:47.128Z,26.10
2018-08-07T03:35:15.912Z,26.20
2018-08-07T03:37:44.597Z,26.10
2018-08-07T03:40:16.038Z,26.20
2018-08-07T03:45:14.513Z,26.20
2018-08-07T03:47:43.844Z,26.20
2018-08-07T03:52:41.025Z,26.20
2018-08-07T03:55:13.185Z,26.20
2018-08-07T04:00:13.397Z,26.20
2018-08-07T04:02:42.543Z,26.20
2018-08-07T04:05:11.408Z,26.20
2018-08-07T04:10:10.616Z,26.30
2018-08-07T04:12:39.554Z,26.30
2018-08-07T04:15:10.143Z,26.30
2018-08-07T04:17:38.808Z,26.30
2018-08-07T04:20:09.942Z,26.30
2018-08-07T04:22:39.231Z,26.30
2018-08-07T04:25:08.852Z,26.30
2018-08-07T04:27:38.582Z,26.30
2018-08-07T04:30:11.501Z,26.40
2018-08-07T04:32:40.284Z,26.40
2018-08-07T04:37:37.365Z,26.40
2018-08-07T04:40:06.932Z,26.40
2018-08-07T04:42:36.156Z,26.40
2018-08-07T04:50:02.896Z,26.30
2018-08-07T04:52:31.572Z,26.30
2018-08-07T04:55:00.272Z,26.30
2018-08-07T04:57:28.907Z,26.30
2018-08-07T04:59:57.618Z,26.30
2018-08-07T05:02:27.093Z,26.30
2018-08-07T05:04:55.779Z,26.30
2018-08-07T05:09:52.697Z,26.30
2018-08-07T05:12:21.397Z,26.20
2018-08-07T05:14:50.121Z,26.30
2018-08-07T05:17:18.871Z,26.30
2018-08-07T05:19:48.448Z,26.30
2018-08-07T05:22:17.125Z,26.30
2018-08-07T05:24:45.753Z,26.30
2018-08-07T05:27:14.445Z,26.30
2018-08-07T05:29:43.375Z,26.30
2018-08-07T05:32:12.087Z,26.40
2018-08-07T05:34:40.838Z,26.30
2018-08-07T05:37:09.588Z,26.30
2018-08-07T05:39:38.221Z,26.40
2018-08-07T05:42:06.932Z,26.40
2018-08-07T05:44:35.600Z,26.40
2018-08-07T05:47:04.392Z,26.40
2018-08-07T05:49:33.145Z,26.50
2018-08-07T05:52:01.747Z,26.50
2018-08-07T05:54:30.517Z,26.60
2018-08-07T05:56:59.326Z,26.60
2018-08-07T05:59:28.060Z,26.60
2018-08-07T06:01:56.885Z,26.60
2018-08-07T06:04:26.176Z,26.60
2018-08-07T06:06:54.860Z,26.60
2018-08-07T06:09:23.920Z,26.70
2018-08-07T06:11:52.592Z,26.70
2018-08-07T06:16:52.016Z,26.80
2018-08-07T06:19:20.686Z,26.90
2018-08-07T06:21:51.724Z,26.90
2018-08-07T06:24:20.501Z,26.80
2018-08-07T06:26:49.242Z,26.90
2018-08-07T06:29:18.066Z,26.90
2018-08-07T06:31:46.765Z,27.00
2018-08-07T06:34:15.438Z,27.00
2018-08-07T06:36:44.121Z,26.90
2018-08-07T06:39:12.850Z,27.00
2018-08-07T06:41:41.541Z,27.00
2018-08-07T06:44:10.225Z,27.00
2018-08-07T06:46:39.077Z,27.00
2018-08-07T06:49:07.793Z,27.10
2018-08-07T06:51:36.460Z,27.10
2018-08-07T06:56:33.399Z,27.20
2018-08-07T06:59:02.044Z,27.20
2018-08-07T07:01:30.730Z,27.30
2018-08-07T07:03:59.373Z,27.30
2018-08-07T07:06:28.032Z,27.30
2018-08-07T07:08:56.768Z,27.40
2018-08-07T07:11:26.018Z,27.40
2018-08-07T07:13:54.712Z,27.40
2018-08-07T07:16:23.356Z,27.50
2018-08-07T07:18:52.172Z,27.50
2018-08-07T07:21:20.880Z,27.50
2018-08-07T07:23:49.757Z,27.60
2018-08-07T07:26:18.452Z,27.60
2018-08-07T07:28:47.220Z,27.70
2018-08-07T07:31:15.924Z,27.70
2018-08-07T07:33:44.608Z,27.80
2018-08-07T07:36:13.364Z,27.80
2018-08-07T07:38:42.027Z,27.90
2018-08-07T07:41:10.761Z,27.90
2018-08-07T07:43:39.460Z,27.90
2018-08-07T07:46:08.548Z,28.00
2018-08-07T07:48:37.175Z,27.90
2018-08-07T07:51:05.825Z,28.00
2018-08-07T07:53:34.557Z,28.10
2018-08-07T07:58:31.585Z,28.20
2018-08-07T08:01:00.253Z,28.20
2018-08-07T08:03:28.962Z,28.30
2018-08-07T08:05:57.715Z,28.30
2018-08-07T08:08:27.517Z,28.40
2018-08-07T08:10:56.227Z,28.40
2018-08-07T08:13:25.236Z,28.50
2018-08-07T08:15:54.072Z,28.50
2018-08-07T08:18:22.724Z,28.60
2018-08-07T08:20:51.461Z,28.60
2018-08-07T08:25:48.649Z,28.70
2018-08-07T08:28:17.342Z,28.70
2018-08-07T08:30:46.113Z,28.80
2018-08-07T08:33:14.857Z,28.90
2018-08-07T08:35:43.611Z,28.90
2018-08-07T08:38:12.316Z,28.90
2018-08-07T08:40:41.101Z,29.00
2018-08-07T08:43:09.876Z,29.10
2018-08-07T08:45:38.653Z,29.10
2018-08-07T08:50:36.398Z,29.30
2018-08-07T08:55:33.392Z,29.40
2018-08-07T08:58:02.071Z,29.40
2018-08-07T09:00:31.773Z,29.50
2018-08-07T09:03:02.709Z,29.60
2018-08-07T09:08:00.212Z,29.80
2018-08-07T09:10:30.227Z,29.80
2018-08-07T09:12:59.946Z,29.80
2018-08-07T09:15:28.704Z,29.90
2018-08-07T09:17:57.441Z,29.90
2018-08-07T09:20:29.667Z,30.00
2018-08-07T09:22:58.907Z,30.10
2018-08-07T09:25:32.556Z,30.20
2018-08-07T09:28:01.234Z,30.20
2018-08-07T09:30:30.917Z,30.30
2018-08-07T09:33:00.199Z,30.40
2018-08-07T09:35:28.896Z,30.50
2018-08-07T09:37:58.299Z,30.50
2018-08-07T09:40:27.784Z,30.60
2018-08-07T09:42:57.289Z,30.70
2018-08-07T09:45:32.547Z,30.70
2018-08-07T09:48:02.466Z,30.80
2018-08-07T09:50:31.213Z,30.90
2018-08-07T09:55:28.347Z,30.90
2018-08-07T09:57:57.148Z,31.00
2018-08-07T10:00:31.813Z,31.10
2018-08-07T10:05:31.660Z,31.20
2018-08-07T10:08:00.409Z,31.30
2018-08-07T10:10:29.869Z,31.30
2018-08-07T10:12:58.692Z,31.40
2018-08-07T10:17:55.799Z,31.50
2018-08-07T10:20:25.143Z,31.60
2018-08-07T10:22:53.859Z,31.60
2018-08-07T10:25:22.580Z,31.70
2018-08-07T10:27:51.249Z,31.70
2018-08-07T10:30:23.289Z,31.80
2018-08-07T10:32:52.541Z,31.70
2018-08-07T10:35:21.456Z,31.70
2018-08-07T10:37:50.210Z,31.80
2018-08-07T10:40:21.544Z,31.90
2018-08-07T10:42:50.237Z,31.90
2018-08-07T10:45:21.337Z,31.90
2018-08-07T10:47:50.182Z,32.10
2018-08-07T10:50:26.344Z,32.10
2018-08-07T10:52:55.580Z,32.20
2018-08-07T10:55:25.601Z,32.20
2018-08-07T10:57:56.814Z,32.20
2018-08-07T11:00:28.549Z,32.30
2018-08-07T11:02:57.800Z,32.40
2018-08-07T11:05:28.415Z,32.50
2018-08-07T11:07:57.113Z,32.50
2018-08-07T11:10:25.945Z,32.60
2018-08-07T11:12:55.107Z,32.70
2018-08-07T11:15:29.243Z,32.80
2018-08-07T11:17:58.749Z,32.80
2018-08-07T11:20:28.013Z,32.80
2018-08-07T11:22:58.337Z,33.00
2018-08-07T11:25:29.326Z,33.00
2018-08-07T11:28:01.201Z,33.00
2018-08-07T11:30:30.458Z,33.10
2018-08-07T11:33:00.417Z,33.20
2018-08-07T11:35:29.614Z,33.30
2018-08-07T11:38:00.360Z,33.40
2018-08-07T11:42:58.091Z,33.50
2018-08-07T11:45:29.663Z,33.50
2018-08-07T11:47:58.483Z,33.60
2018-08-07T11:52:57.688Z,33.70
2018-08-07T11:55:27.240Z,33.80
2018-08-07T11:57:56.522Z,33.80
2018-08-07T12:00:28.451Z,33.80
2018-08-07T12:02:57.238Z,33.90
2018-08-07T12:05:26.472Z,33.90
2018-08-07T12:07:55.181Z,33.90
2018-08-07T12:10:23.881Z,33.80
2018-08-07T12:12:52.643Z,33.80
2018-08-07T12:15:22.541Z,33.80
2018-08-07T12:17:51.344Z,33.80
2018-08-07T12:20:20.112Z,33.80
2018-08-07T12:25:18.069Z,33.90
2018-08-07T12:27:46.831Z,33.90
2018-08-07T12:30:32.922Z,33.80
2018-08-07T12:33:01.606Z,33.90
2018-08-07T12:35:30.352Z,34.00
2018-08-07T12:37:59.136Z,34.00
2018-08-07T12:40:29.490Z,34.00
2018-08-07T12:43:01.906Z,34.00
2018-08-07T12:45:30.841Z,34.10
2018-08-07T12:47:59.638Z,34.10
2018-08-07T12:50:28.338Z,34.10
2018-08-07T12:52:57.149Z,34.20
2018-08-07T12:55:25.934Z,34.30
2018-08-07T12:57:55.105Z,34.30
2018-08-07T13:00:26.596Z,34.30
2018-08-07T13:02:55.471Z,34.20
2018-08-07T13:05:24.197Z,34.10
2018-08-07T13:07:53.045Z,34.00
2018-08-07T13:10:22.981Z,33.90
2018-08-07T13:12:52.491Z,33.80
2018-08-07T13:15:21.697Z,33.70
2018-08-07T13:17:50.834Z,33.60
2018-08-07T13:20:19.626Z,33.50
2018-08-07T13:22:48.709Z,33.40
2018-08-07T13:25:19.903Z,33.30
2018-08-07T13:27:48.669Z,33.30
2018-08-07T13:30:19.778Z,33.20
2018-08-07T13:32:48.573Z,33.20
2018-08-07T13:35:17.762Z,33.10
2018-08-07T13:37:47.776Z,33.10
2018-08-07T13:40:18.811Z,33.00
2018-08-07T13:45:17.645Z,33.00
2018-08-07T13:47:47.149Z,33.00
2018-08-07T13:50:22.560Z,33.00
2018-08-07T13:52:52.066Z,32.90
2018-08-07T13:55:21.914Z,32.90
2018-08-07T13:57:50.687Z,32.80
2018-08-07T14:02:50.027Z,32.70
2018-08-07T14:05:19.626Z,32.60
2018-08-07T14:07:49.317Z,32.60
2018-08-07T14:10:18.805Z,32.50
2018-08-07T14:12:47.524Z,32.50
2018-08-07T14:15:17.098Z,32.40
2018-08-07T14:17:46.279Z,32.40
2018-08-07T14:20:15.906Z,32.30
2018-08-07T14:22:44.838Z,32.30
2018-08-07T14:25:17.354Z,32.30
2018-08-07T14:27:46.077Z,32.20
2018-08-07T14:30:17.943Z,32.20
2018-08-07T14:32:46.917Z,32.20
2018-08-07T14:35:19.598Z,32.10
2018-08-07T14:37:48.957Z,32.10
2018-08-07T14:42:47.928Z,32.00
2018-08-07T14:45:18.629Z,32.00
2018-08-07T14:47:48.155Z,32.00
2018-08-07T14:50:19.834Z,32.00
2018-08-07T14:52:48.675Z,31.90
2018-08-07T14:55:17.411Z,32.00
2018-08-07T14:57:46.308Z,31.90
2018-08-07T15:02:45.517Z,31.90
2018-08-07T15:05:14.317Z,31.80
2018-08-07T15:07:43.204Z,31.80
2018-08-07T15:12:42.738Z,31.70
2018-08-07T15:15:14.907Z,31.70
2018-08-07T15:17:43.893Z,31.70
2018-08-07T15:22:42.877Z,31.70
2018-08-07T15:25:13.648Z,31.70
2018-08-07T15:27:42.429Z,31.70
2018-08-07T15:32:41.876Z,31.60
2018-08-07T15:35:10.676Z,31.70
2018-08-07T15:37:39.482Z,31.60
2018-08-07T15:40:09.249Z,31.60
2018-08-07T15:47:35.172Z,31.60
2018-08-07T15:50:05.248Z,31.50
2018-08-07T15:52:33.913Z,31.50
2018-08-07T15:55:02.663Z,31.40
2018-08-07T15:57:31.522Z,31.40
2018-08-07T16:00:00.170Z,31.40
2018-08-07T16:02:29.511Z,31.40
2018-08-07T16:04:58.288Z,31.30
2018-08-07T16:09:56.037Z,31.00
2018-08-07T16:17:21.593Z,30.40
2018-08-07T16:19:50.320Z,30.20
2018-08-07T16:22:19.135Z,30.10
2018-08-07T16:27:16.101Z,30.10
2018-08-07T16:29:44.930Z,30.10
2018-08-07T16:32:13.582Z,30.10
2018-08-07T16:34:42.261Z,30.20
2018-08-07T16:37:10.993Z,30.20
2018-08-07T16:39:39.788Z,30.20
2018-08-07T16:42:08.532Z,30.30
2018-08-07T16:44:37.189Z,30.20
2018-08-07T16:47:05.949Z,30.20
2018-08-07T16:52:03.120Z,30.30
2018-08-07T16:54:31.818Z,30.30
2018-08-07T16:57:00.549Z,30.30
2018-08-07T16:59:29.328Z,30.30
2018-08-07T17:01:58.072Z,30.30
2018-08-07T17:04:28.006Z,30.30
2018-08-07T17:06:56.732Z,30.30
2018-08-07T17:09:25.794Z,30.30
2018-08-07T17:11:54.625Z,30.20
2018-08-07T17:14:23.294Z,30.20
2018-08-07T17:16:52.224Z,30.10
2018-08-07T17:19:20.943Z,30.10
2018-08-07T17:21:49.937Z,30.00
2018-08-07T17:24:18.636Z,29.80
2018-08-07T17:26:47.378Z,29.80
2018-08-07T17:29:16.115Z,29.70
2018-08-07T17:31:44.853Z,29.60
2018-08-07T17:36:41.886Z,29.40
2018-08-07T17:39:10.593Z,29.40
2018-08-07T17:41:39.325Z,29.30
2018-08-07T17:44:08.398Z,29.30
2018-08-07T17:46:37.084Z,29.30
2018-08-07T17:49:05.905Z,29.30
2018-08-07T17:51:34.611Z,29.20
2018-08-07T17:54:03.354Z,29.10
2018-08-07T17:56:32.117Z,29.00
2018-08-07T17:59:00.987Z,28.90
2018-08-07T18:01:29.688Z,28.90
2018-08-07T18:03:58.451Z,28.90
2018-08-07T18:06:27.285Z,28.80
2018-08-07T18:08:55.964Z,28.70
2018-08-07T18:11:24.731Z,28.80
2018-08-07T18:13:53.417Z,28.90
2018-08-07T18:16:22.205Z,29.00
2018-08-07T18:18:51.190Z,29.00
2018-08-07T18:21:19.951Z,29.00
2018-08-07T18:23:48.573Z,29.00
2018-08-07T18:26:17.221Z,29.00
2018-08-07T18:28:45.924Z,29.00
2018-08-07T18:31:14.668Z,28.90
2018-08-07T18:33:43.549Z,29.00
2018-08-07T18:36:12.310Z,29.00
2018-08-07T18:38:40.951Z,29.00
2018-08-07T18:41:09.761Z,28.90
2018-08-07T18:43:38.524Z,29.00
2018-08-07T18:46:07.312Z,28.90
2018-08-07T18:48:36.063Z,28.90
2018-08-07T18:51:04.815Z,28.90
2018-08-07T18:56:02.961Z,28.80
2018-08-07T18:58:31.744Z,28.80
2018-08-07T19:03:28.820Z,28.80
2018-08-07T19:05:57.517Z,28.70
2018-08-07T19:08:26.813Z,28.70
2018-08-07T19:10:55.559Z,28.70
2018-08-07T19:13:24.271Z,28.70
2018-08-07T19:15:52.958Z,28.60
2018-08-07T19:18:21.715Z,28.60
2018-08-07T19:20:50.380Z,28.60
2018-08-07T19:23:19.116Z,28.50
2018-08-07T19:25:47.837Z,28.50
2018-08-07T19:28:16.624Z,28.50
2018-08-07T19:30:45.331Z,28.40
2018-08-07T19:33:14.033Z,28.30
2018-08-07T19:35:42.688Z,28.30
2018-08-07T19:38:11.465Z,28.20
2018-08-07T19:40:40.122Z,28.20
2018-08-07T19:43:08.982Z,28.20
2018-08-07T19:45:37.695Z,28.10
2018-08-07T19:48:06.623Z,28.10
2018-08-07T19:50:35.373Z,28.00
2018-08-07T19:53:04.069Z,28.00
2018-08-07T19:55:32.838Z,27.90
2018-08-07T19:58:01.467Z,27.90
2018-08-07T20:00:30.120Z,27.80
2018-08-07T20:02:59.383Z,27.70
2018-08-07T20:05:28.805Z,27.70
2018-08-07T20:07:57.890Z,27.70
2018-08-07T20:10:27.643Z,27.60
2018-08-07T20:12:56.352Z,27.60
2018-08-07T20:17:56.208Z,27.50
2018-08-07T20:20:25.362Z,27.60
2018-08-07T20:22:54.454Z,27.50
2018-08-07T20:25:23.293Z,27.50
2018-08-07T20:27:52.101Z,27.50
2018-08-07T20:30:22.219Z,27.50
2018-08-07T20:32:52.374Z,27.50
2018-08-07T20:35:21.135Z,27.50
2018-08-07T20:37:49.916Z,27.40
2018-08-07T20:40:21.504Z,27.40
2018-08-07T20:42:50.418Z,27.40
2018-08-07T20:45:19.996Z,27.40
2018-08-07T20:47:48.678Z,27.40
2018-08-07T20:50:20.816Z,27.30
2018-08-07T20:52:49.629Z,27.30
2018-08-07T20:55:18.414Z,27.30
2018-08-07T20:57:47.171Z,27.20
2018-08-07T21:00:22.380Z,27.10
2018-08-07T21:02:51.208Z,27.20
2018-08-07T21:05:20.047Z,27.20
2018-08-07T21:07:48.839Z,27.20
2018-08-07T21:10:22.808Z,27.30
2018-08-07T21:12:51.668Z,27.30
2018-08-07T21:15:20.377Z,27.20
2018-08-07T21:17:49.160Z,27.20
2018-08-07T21:20:19.556Z,27.20
2018-08-07T21:22:48.512Z,27.20
2018-08-07T21:25:18.677Z,27.20
2018-08-07T21:27:48.578Z,27.20
2018-08-07T21:30:19.829Z,27.20
2018-08-07T21:32:48.631Z,27.20
2018-08-07T21:35:17.310Z,27.20
2018-08-07T21:37:46.076Z,27.20
2018-08-07T21:40:18.029Z,27.20
2018-08-07T21:42:47.259Z,27.20
2018-08-07T21:45:16.185Z,27.20
2018-08-07T21:47:45.176Z,27.20
2018-08-07T21:50:15.751Z,27.10
2018-08-07T21:52:44.462Z,27.10
2018-08-07T21:55:14.765Z,27.10
2018-08-07T21:57:43.911Z,27.10
2018-08-07T22:00:53.749Z,27.00
2018-08-07T22:03:22.472Z,27.00
2018-08-07T22:05:51.553Z,27.00
2018-08-07T22:08:20.346Z,27.00
2018-08-07T22:10:49.089Z,27.00
2018-08-07T22:13:17.825Z,27.00
2018-08-07T22:15:46.511Z,27.00
2018-08-07T22:18:15.214Z,27.00
2018-08-07T22:20:43.886Z,27.00
2018-08-07T22:23:12.684Z,27.00
2018-08-07T22:25:41.452Z,27.00
2018-08-07T22:28:10.164Z,27.10
2018-08-07T22:30:38.900Z,27.10
2018-08-07T22:33:07.758Z,27.10
2018-08-07T22:35:36.506Z,27.10
2018-08-07T22:38:05.281Z,27.10
2018-08-07T22:40:33.980Z,27.10
2018-08-07T22:43:02.708Z,27.10
2018-08-07T22:45:32.216Z,27.10
2018-08-07T22:48:02.276Z,27.20
2018-08-07T22:50:31.012Z,27.20
2018-08-07T22:52:59.718Z,27.10
2018-08-07T22:55:29.073Z,27.10
2018-08-07T22:57:57.824Z,27.10
2018-08-07T23:00:26.983Z,27.10
2018-08-07T23:02:55.797Z,27.10
2018-08-07T23:05:24.550Z,27.10
2018-08-07T23:07:53.263Z,27.10
2018-08-07T23:10:22.628Z,27.10
2018-08-07T23:12:51.348Z,27.10
2018-08-07T23:15:21.187Z,27.10
2018-08-07T23:17:50.312Z,27.10
2018-08-07T23:20:49.468Z,27.00
2018-08-07T23:23:18.132Z,27.00
2018-08-07T23:25:46.856Z,27.00
2018-08-07T23:28:15.509Z,26.90
2018-08-07T23:30:44.753Z,26.90
2018-08-07T23:33:13.608Z,26.80
2018-08-07T23:35:42.526Z,26.80
2018-08-07T23:38:11.228Z,26.90
2018-08-07T23:40:39.884Z,26.90
2018-08-07T23:43:08.592Z,26.90
2018-08-07T23:45:37.301Z,26.90
2018-08-07T23:48:05.960Z,26.90
2018-08-07T23:50:34.584Z,26.80
2018-08-07T23:53:03.268Z,26.80
2018-08-07T23:55:32.007Z,26.80
2018-08-07T23:58:01.297Z,26.80
